Time;durP1;ratioP1;P1;durP2;ratioP2;P2;SDS_P1;SDS_P2;PMS_P1;PMS_P2;Temp;Humidity;BMP_temperature;BMP_pressure;BME280_temperature;BME280_humidity;BME280_pressure;Samples;Min_cycle;Max_cycle;Signal;HPM_P1;HPM_P2
2023/11/08 00:00:35;;;;;;;0.60;0.60;;;4.00;99.90;;;;;;5088245;28;20206;-70
2023/11/08 00:03:01;;;;;;;0.60;0.60;;;3.90;99.90;;;;;;5088147;28;20196;-75
2023/11/08 00:05:28;;;;;;;0.63;0.63;;;3.90;99.90;;;;;;5087718;28;20200;-73
2023/11/08 00:07:54;;;;;;;0.60;0.60;;;3.90;99.90;;;;;;5088188;28;20253;-74
2023/11/08 00:10:20;;;;;;;0.57;0.57;;;3.90;99.90;;;;;;5075749;28;20664;-75
2023/11/08 00:12:45;;;;;;;0.50;0.50;;;3.90;99.90;;;;;;5068033;28;20193;-75
2023/11/08 00:15:11;;;;;;;0.63;0.63;;;3.90;99.90;;;;;;5068011;28;20189;-76
2023/11/08 00:17:37;;;;;;;0.70;0.70;;;3.90;99.90;;;;;;5067841;28;20199;-76
2023/11/08 00:20:09;;;;;;;0.47;0.47;;;3.80;99.90;;;;;;5067887;28;20292;-76
2023/11/08 00:22:34;;;;;;;0.50;0.50;;;3.80;99.90;;;;;;5067764;28;20759;-74
2023/11/08 00:25:00;;;;;;;0.50;0.50;;;3.80;99.90;;;;;;5067745;28;20293;-74
2023/11/08 00:27:26;;;;;;;0.60;0.60;;;3.70;99.90;;;;;;5049824;28;20207;-75
2023/11/08 00:29:52;;;;;;;0.60;0.60;;;3.70;99.90;;;;;;5067685;28;20204;-76
2023/11/08 00:32:21;;;;;;;0.60;0.60;;;3.70;99.90;;;;;;5076117;28;20192;-74
2023/11/08 00:34:50;;;;;;;0.60;0.60;;;3.70;99.90;;;;;;5087979;28;20233;-76
2023/11/08 00:37:18;;;;;;;0.50;0.50;;;3.80;99.90;;;;;;5069732;28;20247;-74
2023/11/08 00:39:44;;;;;;;0.50;0.50;;;3.80;99.90;;;;;;5087889;28;20253;-75
2023/11/08 00:42:10;;;;;;;0.60;0.60;;;3.80;99.90;;;;;;5091183;28;20204;-73
2023/11/08 00:44:36;;;;;;;0.68;0.68;;;3.90;99.90;;;;;;5091523;28;20198;-75
2023/11/08 00:47:01;;;;;;;0.68;0.68;;;3.90;99.90;;;;;;5091571;28;20257;-74
2023/11/08 00:49:28;;;;;;;0.60;0.60;;;3.90;99.90;;;;;;5091248;28;20679;-74
2023/11/08 00:51:54;;;;;;;0.60;0.60;;;3.90;99.90;;;;;;5091309;28;20199;-74
2023/11/08 00:54:20;;;;;;;0.95;0.95;;;3.90;99.90;;;;;;5091175;28;20192;-75
2023/11/08 00:56:46;;;;;;;0.80;0.80;;;4.00;99.90;;;;;;5091304;28;20297;-75
2023/11/08 00:59:11;;;;;;;0.65;0.65;;;3.90;99.90;;;;;;5091035;28;20927;-75
2023/11/08 01:01:37;;;;;;;0.70;0.70;;;3.90;99.90;;;;;;5091065;28;20201;-74
2023/11/08 01:04:06;;;;;;;0.60;0.60;;;3.90;99.90;;;;;;5091279;28;20235;-72
2023/11/08 01:06:32;;;;;;;1.23;1.20;;;3.80;99.90;;;;;;5079058;28;20197;-72
2023/11/08 01:08:58;;;;;;;0.57;0.57;;;3.80;99.90;;;;;;5070652;28;20234;-72
2023/11/08 01:11:24;;;;;;;0.60;0.60;;;3.80;99.90;;;;;;5070735;28;20189;-72
2023/11/08 01:13:50;;;;;;;0.55;0.55;;;3.80;99.90;;;;;;5052885;28;20201;-74
2023/11/08 01:16:15;;;;;;;0.50;0.50;;;3.80;99.90;;;;;;5070818;28;20215;-76
2023/11/08 01:18:41;;;;;;;0.60;0.60;;;3.90;99.90;;;;;;5070607;28;20542;-75
2023/11/08 01:21:07;;;;;;;0.45;0.45;;;3.90;99.90;;;;;;5070749;28;20245;-75
2023/11/08 01:23:33;;;;;;;1.10;1.02;;;3.90;99.90;;;;;;5070555;28;20200;-75
2023/11/08 01:25:58;;;;;;;0.65;0.65;;;3.90;99.90;;;;;;5070611;28;20196;-75
2023/11/08 01:28:24;;;;;;;0.60;0.60;;;3.90;99.90;;;;;;5077033;28;20263;-75
2023/11/08 01:30:50;;;;;;;0.57;0.57;;;3.90;99.90;;;;;;5090886;28;20586;-75
2023/11/08 01:33:16;;;;;;;0.63;0.63;;;3.90;99.90;;;;;;5090862;28;20191;-75
2023/11/08 01:35:43;;;;;;;0.50;0.50;;;3.80;99.90;;;;;;5090641;28;20714;-74
2023/11/08 01:38:09;;;;;;;4.53;2.13;;;3.80;99.90;;;;;;5091047;28;20192;-74
2023/11/08 01:40:35;;;;;;;0.57;0.57;;;3.80;99.90;;;;;;5090266;28;20192;-75
2023/11/08 01:43:01;;;;;;;0.50;0.50;;;3.90;99.90;;;;;;5090312;28;20192;-75
2023/11/08 01:45:27;;;;;;;0.40;0.40;;;3.90;99.90;;;;;;5090177;28;20718;-75
2023/11/08 01:47:53;;;;;;;0.52;0.52;;;3.90;99.90;;;;;;5090333;28;20203;-75
2023/11/08 01:50:18;;;;;;;0.60;0.60;;;3.90;99.90;;;;;;5090109;28;20283;-75
2023/11/08 01:52:44;;;;;;;0.60;0.60;;;3.90;99.90;;;;;;5090022;28;20207;-75
2023/11/08 01:55:11;;;;;;;0.50;0.50;;;4.00;99.90;;;;;;5071674;28;20341;-75
2023/11/08 01:57:37;;;;;;;0.63;0.63;;;4.00;99.90;;;;;;5090044;28;20207;-75
2023/11/08 02:00:05;;;;;;;0.60;0.60;;;4.00;99.90;;;;;;5090072;28;20204;-74
2023/11/08 02:02:31;;;;;;;0.80;0.80;;;4.00;99.90;;;;;;5090015;28;20212;-74
2023/11/08 02:04:57;;;;;;;0.52;0.52;;;4.00;99.90;;;;;;5071689;28;20204;-76
2023/11/08 02:07:22;;;;;;;0.50;0.50;;;4.00;99.90;;;;;;5069551;28;20197;-73
2023/11/08 02:09:49;;;;;;;0.50;0.50;;;3.90;99.90;;;;;;5051783;28;20251;-75
2023/11/08 02:12:15;;;;;;;0.60;0.60;;;3.90;99.90;;;;;;5069537;28;20193;-74
2023/11/08 02:15:00;;;;;;;0.50;0.50;;;4.00;99.90;;;;;;5069714;28;20185;-72
2023/11/08 02:17:27;;;;;;;0.50;0.50;;;4.00;99.90;;;;;;5069008;28;20686;-72
2023/11/08 02:19:52;;;;;;;0.60;0.60;;;4.00;99.90;;;;;;5069515;28;20250;-72
2023/11/08 02:22:18;;;;;;;0.52;0.52;;;4.00;99.90;;;;;;5068899;28;20220;-72
2023/11/08 02:24:44;;;;;;;0.68;0.68;;;4.00;99.90;;;;;;5077385;28;20244;-72
2023/11/08 02:27:09;;;;;;;0.50;0.50;;;4.00;99.90;;;;;;5089597;28;20204;-72
2023/11/08 02:29:35;;;;;;;0.50;0.50;;;4.00;99.90;;;;;;5089312;28;20698;-72
2023/11/08 02:32:01;;;;;;;0.60;0.60;;;4.00;99.90;;;;;;5089386;28;20196;-72
2023/11/08 02:34:26;;;;;;;0.50;0.50;;;4.00;99.90;;;;;;5071089;28;20188;-72
2023/11/08 02:36:53;;;;;;;0.50;0.50;;;4.00;99.90;;;;;;5089237;28;20203;-72
2023/11/08 02:39:19;;;;;;;0.50;0.50;;;4.00;99.90;;;;;;5089166;28;20675;-71
2023/11/08 02:41:47;;;;;;;0.63;0.63;;;4.00;99.90;;;;;;5089305;28;20224;-72
2023/11/08 02:44:13;;;;;;;0.52;0.52;;;4.00;99.90;;;;;;5089345;28;20199;-72
2023/11/08 02:46:38;;;;;;;0.60;0.60;;;4.00;99.90;;;;;;5089239;28;20192;-72
2023/11/08 02:49:06;;;;;;;0.55;0.55;;;4.00;99.90;;;;;;5070921;28;20290;-72
2023/11/08 02:51:31;;;;;;;0.60;0.60;;;4.10;99.90;;;;;;5088932;28;21055;-72
2023/11/08 02:53:58;;;;;;;0.68;0.68;;;4.10;99.90;;;;;;5088894;28;20273;-72
2023/11/08 02:56:24;;;;;;;0.60;0.60;;;4.10;99.90;;;;;;5088935;28;20750;-72
2023/11/08 02:58:52;;;;;;;0.50;0.50;;;4.10;99.90;;;;;;5088931;28;20200;-72
2023/11/08 03:01:17;;;;;;;0.60;0.60;;;4.10;99.90;;;;;;5070611;28;20196;-72
2023/11/08 03:03:43;;;;;;;0.55;0.55;;;4.10;99.90;;;;;;5088317;28;20262;-72
2023/11/08 03:06:09;;;;;;;0.95;0.93;;;4.10;99.90;;;;;;5088609;28;20196;-72
2023/11/08 03:08:34;;;;;;;0.68;0.68;;;4.10;99.90;;;;;;5087408;28;20592;-72
2023/11/08 03:11:00;;;;;;;0.80;0.80;;;4.10;99.90;;;;;;5088754;28;20581;-72
2023/11/08 03:13:26;;;;;;;0.50;0.50;;;4.10;99.90;;;;;;5088774;28;20531;-72
2023/11/08 03:15:52;;;;;;;0.60;0.60;;;4.10;99.90;;;;;;5089006;28;20663;-72
2023/11/08 03:18:18;;;;;;;0.50;0.50;;;4.10;99.90;;;;;;5089058;28;20754;-72
2023/11/08 03:20:45;;;;;;;0.70;0.70;;;4.10;99.90;;;;;;5069628;28;20246;-72
2023/11/08 03:23:11;;;;;;;0.70;0.70;;;4.10;99.90;;;;;;5070763;28;20200;-72
2023/11/08 03:25:38;;;;;;;0.60;0.60;;;4.10;99.90;;;;;;5088763;28;20214;-72
2023/11/08 03:28:04;;;;;;;0.60;0.60;;;4.10;99.90;;;;;;5070554;28;20222;-72
2023/11/08 03:30:30;;;;;;;0.43;0.43;;;4.10;99.90;;;;;;5088357;28;20256;-72
2023/11/08 03:32:57;;;;;;;1.20;1.10;;;4.10;99.90;;;;;;5088541;28;20196;-74
2023/11/08 03:35:23;;;;;;;0.70;0.70;;;4.10;99.90;;;;;;5088319;28;20790;-73
2023/11/08 03:37:49;;;;;;;0.50;0.50;;;4.20;99.90;;;;;;5088395;28;20295;-74
2023/11/08 03:40:15;;;;;;;0.60;0.60;;;4.20;99.90;;;;;;5088403;28;20200;-73
2023/11/08 03:42:44;;;;;;;0.70;0.70;;;4.20;99.90;;;;;;5088282;28;20246;-75
2023/11/08 03:45:11;;;;;;;0.90;0.90;;;4.20;99.90;;;;;;5088501;28;20675;-74
2023/11/08 03:47:38;;;;;;;0.57;0.57;;;4.20;99.90;;;;;;5082206;28;20204;-74
2023/11/08 03:50:05;;;;;;;0.70;0.70;;;4.20;99.90;;;;;;5067987;28;20208;-74
2023/11/08 03:52:31;;;;;;;0.50;0.50;;;4.20;99.90;;;;;;5067990;28;20207;-72
2023/11/08 03:54:57;;;;;;;0.50;0.50;;;4.20;99.90;;;;;;5076902;28;20219;-74
2023/11/08 03:57:23;;;;;;;0.40;0.40;;;4.20;99.90;;;;;;5087778;28;20230;-74
2023/11/08 03:59:49;;;;;;;0.50;0.50;;;4.20;99.90;;;;;;5088120;28;20563;-75
2023/11/08 04:02:17;;;;;;;0.43;0.43;;;4.20;99.90;;;;;;5069442;28;20200;-75
2023/11/08 04:04:45;;;;;;;0.60;0.60;;;4.20;99.90;;;;;;5087402;28;20200;-75
2023/11/08 04:07:10;;;;;;;0.50;0.50;;;4.20;99.90;;;;;;5087730;28;20227;-75
2023/11/08 04:09:36;;;;;;;0.60;0.60;;;4.20;99.90;;;;;;5087996;28;20575;-75
2023/11/08 04:12:02;;;;;;;0.50;0.50;;;4.20;99.90;;;;;;5088073;28;20200;-73
2023/11/08 04:14:28;;;;;;;0.52;0.52;;;4.10;99.90;;;;;;5088170;28;20196;-73
2023/11/08 04:16:54;;;;;;;0.60;0.60;;;4.10;99.90;;;;;;5090412;28;20199;-75
2023/11/08 04:19:19;;;;;;;0.68;0.68;;;4.10;99.90;;;;;;5091939;28;20188;-75
2023/11/08 04:21:45;;;;;;;0.70;0.70;;;4.20;99.90;;;;;;5092533;28;20196;-73
2023/11/08 04:24:11;;;;;;;0.90;0.90;;;4.20;99.90;;;;;;5091950;28;20282;-75
2023/11/08 04:26:37;;;;;;;0.52;0.52;;;4.20;99.90;;;;;;5091873;28;20215;-75
2023/11/08 04:29:02;;;;;;;0.60;0.60;;;4.20;99.90;;;;;;5091908;28;20253;-75
2023/11/08 04:31:28;;;;;;;0.60;0.60;;;4.20;99.90;;;;;;5091650;28;20594;-75
2023/11/08 04:33:54;;;;;;;0.70;0.70;;;4.10;99.90;;;;;;5091586;28;20803;-74
2023/11/08 04:36:19;;;;;;;1.40;1.30;;;4.10;99.90;;;;;;5072906;28;20196;-76
2023/11/08 04:38:45;;;;;;;0.55;0.55;;;4.10;99.90;;;;;;5091541;28;20188;-74
2023/11/08 04:41:15;;;;;;;0.63;0.63;;;4.20;99.90;;;;;;5073607;28;20289;-75
2023/11/08 04:43:43;;;;;;;0.45;0.45;;;4.20;99.90;;;;;;5087465;28;20706;-69
2023/11/08 04:46:11;;;;;;;0.57;0.57;;;4.20;99.90;;;;;;5053088;28;20749;-69
2023/11/08 04:48:37;;;;;;;0.50;0.50;;;4.20;99.90;;;;;;5071013;28;20552;-69
2023/11/08 04:51:03;;;;;;;0.50;0.50;;;4.20;99.90;;;;;;5078557;28;20211;-70
2023/11/08 04:53:28;;;;;;;0.70;0.70;;;4.20;99.90;;;;;;5090952;28;20196;-69
2023/11/08 04:55:54;;;;;;;0.70;0.70;;;4.20;99.90;;;;;;5091235;28;20305;-71
2023/11/08 04:58:20;;;;;;;0.55;0.55;;;4.20;99.90;;;;;;5090834;28;20279;-69
2023/11/08 05:00:45;;;;;;;0.60;0.60;;;4.20;99.90;;;;;;5091086;28;20200;-72
2023/11/08 05:03:11;;;;;;;0.60;0.60;;;4.20;99.90;;;;;;5091115;28;20196;-69
2023/11/08 05:05:36;;;;;;;0.60;0.60;;;4.30;99.90;;;;;;5090909;28;20204;-68
2023/11/08 05:08:04;;;;;;;0.50;0.50;;;4.30;99.90;;;;;;5091219;28;20196;-69
2023/11/08 05:10:30;;;;;;;0.60;0.60;;;4.30;99.90;;;;;;5090831;28;20299;-71
2023/11/08 05:12:56;;;;;;;0.47;0.47;;;4.30;99.90;;;;;;5090660;28;20309;-69
2023/11/08 05:15:23;;;;;;;0.60;0.60;;;4.30;99.90;;;;;;5090877;28;20241;-69
2023/11/08 05:17:49;;;;;;;0.70;0.70;;;4.20;99.90;;;;;;5090992;28;20188;-70
2023/11/08 05:20:15;;;;;;;0.57;0.57;;;4.20;99.90;;;;;;5090978;28;20207;-70
2023/11/08 05:22:41;;;;;;;0.85;0.85;;;4.20;99.90;;;;;;5090649;28;20200;-70
2023/11/08 05:25:08;;;;;;;0.70;0.70;;;4.20;99.90;;;;;;5090814;28;20264;-71
2023/11/08 05:27:34;;;;;;;0.50;0.50;;;4.20;99.90;;;;;;5090059;28;20200;-70
2023/11/08 05:30:04;;;;;;;0.52;0.52;;;4.20;99.90;;;;;;5090718;28;20307;-69
2023/11/08 05:32:30;;;;;;;0.60;0.60;;;4.20;99.90;;;;;;5090656;28;20283;-72
2023/11/08 05:34:56;;;;;;;0.63;0.63;;;4.20;99.90;;;;;;5090783;28;20280;-72
2023/11/08 05:37:22;;;;;;;0.50;0.50;;;4.20;99.90;;;;;;5090390;28;20649;-72
2023/11/08 05:39:47;;;;;;;0.60;0.60;;;4.20;99.90;;;;;;5087369;28;20200;-71
2023/11/08 05:42:14;;;;;;;0.60;0.60;;;4.20;99.90;;;;;;5070074;28;20193;-71
2023/11/08 05:44:42;;;;;;;0.57;0.57;;;4.20;99.90;;;;;;5069950;28;20193;-71
2023/11/08 05:47:08;;;;;;;0.50;0.50;;;4.20;99.90;;;;;;5076163;28;20857;-71
2023/11/08 05:49:33;;;;;;;0.57;0.57;;;4.20;99.90;;;;;;5090121;28;20199;-71
2023/11/08 05:51:59;;;;;;;0.60;0.60;;;4.20;99.90;;;;;;5090154;28;20275;-71
2023/11/08 05:54:25;;;;;;;0.60;0.60;;;4.20;99.90;;;;;;5090307;28;20207;-70
2023/11/08 05:56:52;;;;;;;0.60;0.60;;;4.20;99.90;;;;;;5090180;28;20231;-71
2023/11/08 05:59:19;;;;;;;0.70;0.70;;;4.20;99.90;;;;;;5090345;28;20191;-71
2023/11/08 06:01:44;;;;;;;0.63;0.63;;;4.20;99.90;;;;;;5090390;28;20730;-71
2023/11/08 06:04:10;;;;;;;0.60;0.60;;;4.20;99.90;;;;;;5090238;28;20196;-70
2023/11/08 06:06:36;;;;;;;0.50;0.50;;;4.20;99.90;;;;;;5089783;28;20203;-69
2023/11/08 06:09:04;;;;;;;0.70;0.70;;;4.20;99.90;;;;;;5089560;28;20272;-69
2023/11/08 06:11:29;;;;;;;0.60;0.60;;;4.20;99.90;;;;;;5089662;28;20199;-70
2023/11/08 06:13:55;;;;;;;0.50;0.50;;;4.20;99.90;;;;;;5089905;28;20188;-69
2023/11/08 06:16:21;;;;;;;0.40;0.40;;;4.20;99.90;;;;;;5089531;28;20200;-69
2023/11/08 06:18:46;;;;;;;0.60;0.60;;;4.20;99.90;;;;;;5089876;28;20196;-69
2023/11/08 06:21:13;;;;;;;0.50;0.50;;;4.20;99.90;;;;;;5089681;28;20250;-69
2023/11/08 06:23:39;;;;;;;0.60;0.60;;;4.20;99.90;;;;;;5089613;28;20219;-71
2023/11/08 06:26:05;;;;;;;0.43;0.43;;;4.20;99.90;;;;;;5089927;28;20639;-70
2023/11/08 06:28:30;;;;;;;0.60;0.60;;;4.20;99.90;;;;;;5089517;28;20257;-69
2023/11/08 06:30:57;;;;;;;0.50;0.50;;;4.20;99.90;;;;;;5089566;28;20204;-71
2023/11/08 06:33:23;;;;;;;0.47;0.47;;;4.20;99.90;;;;;;5089582;28;20211;-69
2023/11/08 06:35:48;;;;;;;0.60;0.60;;;4.20;99.90;;;;;;5088438;28;20635;-69
2023/11/08 06:38:14;;;;;;;0.50;0.50;;;4.20;99.90;;;;;;5068098;28;20189;-70
2023/11/08 06:40:40;;;;;;;0.47;0.47;;;4.30;99.90;;;;;;5069139;28;20285;-70
2023/11/08 06:43:06;;;;;;;0.50;0.50;;;4.30;99.90;;;;;;5072697;28;20707;-68
2023/11/08 06:45:32;;;;;;;0.55;0.55;;;4.30;99.90;;;;;;5089156;28;20192;-70
2023/11/08 06:47:58;;;;;;;0.50;0.50;;;4.30;99.90;;;;;;5071101;28;20281;-70
2023/11/08 06:50:24;;;;;;;0.60;0.60;;;4.30;99.90;;;;;;5088979;28;20221;-70
2023/11/08 06:52:49;;;;;;;1.40;1.30;;;4.30;99.90;;;;;;5089418;28;20730;-70
2023/11/08 06:55:16;;;;;;;0.68;0.68;;;4.20;99.90;;;;;;5088937;28;20249;-71
2023/11/08 06:57:42;;;;;;;0.65;0.65;;;4.20;99.90;;;;;;5070718;28;20208;-70
2023/11/08 07:00:11;;;;;;;0.60;0.60;;;4.20;99.90;;;;;;5089324;28;20184;-69
2023/11/08 07:02:37;;;;;;;0.50;0.50;;;4.30;99.90;;;;;;5070636;28;20367;-74
2023/11/08 07:05:02;;;;;;;0.60;0.60;;;4.30;99.90;;;;;;5088080;28;20300;-75
2023/11/08 07:07:28;;;;;;;0.60;0.60;;;4.30;99.90;;;;;;5088533;28;20207;-75
2023/11/08 07:09:54;;;;;;;0.63;0.63;;;4.30;99.90;;;;;;5070178;28;20218;-75
2023/11/08 07:12:19;;;;;;;0.70;0.70;;;4.30;99.90;;;;;;5088361;28;20192;-74
2023/11/08 07:14:46;;;;;;;0.70;0.70;;;4.30;99.90;;;;;;5088616;28;20188;-75
2023/11/08 07:17:12;;;;;;;0.80;0.80;;;4.30;99.90;;;;;;5088496;28;20220;-75
2023/11/08 07:19:38;;;;;;;0.60;0.60;;;4.30;99.90;;;;;;5088364;28;20195;-75
2023/11/08 07:22:03;;;;;;;0.60;0.60;;;4.30;99.90;;;;;;5088804;28;20256;-75
2023/11/08 07:24:29;;;;;;;0.50;0.50;;;4.30;99.90;;;;;;5088418;28;20204;-75
2023/11/08 07:26:55;;;;;;;0.70;0.70;;;4.30;99.90;;;;;;5088291;28;20196;-75
2023/11/08 07:29:22;;;;;;;0.60;0.60;;;4.30;99.90;;;;;;5088197;28;20231;-74
2023/11/08 07:31:51;;;;;;;0.60;0.60;;;4.40;99.90;;;;;;5088490;28;20663;-74
2023/11/08 07:34:21;;;;;;;0.60;0.60;;;4.30;99.90;;;;;;5069726;28;20689;-74
2023/11/08 07:36:48;;;;;;;0.52;0.52;;;4.30;99.90;;;;;;5088384;28;20683;-75
2023/11/08 07:39:15;;;;;;;0.60;0.60;;;4.30;99.90;;;;;;5088357;28;20193;-74
2023/11/08 07:41:42;;;;;;;0.60;0.60;;;4.30;99.90;;;;;;5088291;28;20735;-73
2023/11/08 07:44:08;;;;;;;0.45;0.45;;;4.30;99.90;;;;;;5088517;28;20191;-76
2023/11/08 07:46:34;;;;;;;0.50;0.50;;;4.30;99.90;;;;;;5088168;28;20270;-76
2023/11/08 07:48:59;;;;;;;0.50;0.50;;;4.40;99.90;;;;;;5088462;28;20196;-74
2023/11/08 07:51:28;;;;;;;0.50;0.50;;;4.40;99.90;;;;;;5082279;28;20209;-75
2023/11/08 07:53:56;;;;;;;0.60;0.60;;;4.40;99.90;;;;;;5068435;28;20193;-69
2023/11/08 07:56:25;;;;;;;0.60;0.60;;;4.40;99.90;;;;;;5050132;28;20237;-70
2023/11/08 07:58:52;;;;;;;0.60;0.60;;;4.40;99.90;;;;;;5068987;28;20296;-70
2023/11/08 08:01:18;;;;;;;0.52;0.52;;;4.40;99.90;;;;;;5068869;28;20188;-69
2023/11/08 08:03:45;;;;;;;0.50;0.50;;;4.40;99.90;;;;;;5088600;28;20199;-69
2023/11/08 08:06:11;;;;;;;0.50;0.50;;;4.40;99.90;;;;;;5078217;28;20765;-68
2023/11/08 08:08:37;;;;;;;0.60;0.60;;;4.40;99.90;;;;;;5068684;28;20202;-69
2023/11/08 08:11:03;;;;;;;0.60;0.60;;;4.50;99.90;;;;;;5068495;28;20642;-70
2023/11/08 08:13:29;;;;;;;0.60;0.60;;;4.50;99.90;;;;;;5068309;28;20201;-72
2023/11/08 08:15:55;;;;;;;0.57;0.57;;;4.50;99.90;;;;;;5067643;28;20218;-72
2023/11/08 08:18:21;;;;;;;0.55;0.55;;;4.50;99.90;;;;;;5049287;28;20220;-71
2023/11/08 08:20:47;;;;;;;0.60;0.60;;;4.40;99.90;;;;;;5067688;28;20568;-72
2023/11/08 08:23:13;;;;;;;0.60;0.60;;;4.40;99.90;;;;;;5067724;28;20216;-72
2023/11/08 08:25:41;;;;;;;0.70;0.70;;;4.40;99.90;;;;;;5067526;28;20227;-72
2023/11/08 08:28:08;;;;;;;0.60;0.60;;;4.50;99.90;;;;;;5067711;28;20197;-72
2023/11/08 08:30:34;;;;;;;0.60;0.60;;;4.50;99.90;;;;;;5067266;28;20250;-72
2023/11/08 08:33:01;;;;;;;0.70;0.70;;;4.50;99.90;;;;;;5067707;28;20228;-72
2023/11/08 08:35:31;;;;;;;0.65;0.65;;;4.50;99.90;;;;;;5070038;28;20196;-72
2023/11/08 08:37:58;;;;;;;0.50;0.50;;;4.50;99.90;;;;;;5087783;28;20719;-73
2023/11/08 08:40:24;;;;;;;0.55;0.55;;;4.50;99.90;;;;;;5087494;28;20282;-72
2023/11/08 08:42:50;;;;;;;0.50;0.50;;;4.60;99.90;;;;;;5087790;28;20283;-72
2023/11/08 08:45:15;;;;;;;0.60;0.60;;;4.60;99.90;;;;;;5088092;28;20199;-72
2023/11/08 08:47:41;;;;;;;0.50;0.50;;;4.60;99.90;;;;;;5069465;28;20200;-72
2023/11/08 08:50:14;;;;;;;0.50;0.50;;;4.70;99.90;;;;;;5087968;28;20291;-72
2023/11/08 08:52:45;;;;;;;0.52;0.52;;;4.70;99.90;;;;;;5087707;28;20898;-72
2023/11/08 08:55:13;;;;;;;0.57;0.57;;;4.70;99.90;;;;;;5087413;28;20192;-72
2023/11/08 08:57:43;;;;;;;0.60;0.60;;;4.80;99.90;;;;;;5086246;28;20573;-72
2023/11/08 09:00:09;;;;;;;0.60;0.60;;;4.90;99.90;;;;;;5067507;28;20698;-72
2023/11/08 09:02:35;;;;;;;0.70;0.70;;;5.00;99.90;;;;;;5061791;28;20514;-72
2023/11/08 09:05:02;;;;;;;0.60;0.60;;;5.00;99.90;;;;;;5090944;28;20287;-72
2023/11/08 09:07:28;;;;;;;0.50;0.50;;;5.00;99.90;;;;;;5090990;28;20196;-72
2023/11/08 09:09:53;;;;;;;0.45;0.45;;;5.10;99.90;;;;;;5091524;28;20624;-72
2023/11/08 09:12:19;;;;;;;0.52;0.52;;;5.00;99.90;;;;;;5091891;28;20739;-72
2023/11/08 09:14:54;;;;;;;0.50;0.50;;;5.10;99.90;;;;;;5091844;28;20203;-72
2023/11/08 09:17:20;;;;;;;0.60;0.60;;;5.20;99.90;;;;;;5091796;28;20604;-72
2023/11/08 09:19:47;;;;;;;0.50;0.50;;;5.20;99.90;;;;;;5091893;28;20192;-72
2023/11/08 09:22:12;;;;;;;0.60;0.60;;;5.20;99.90;;;;;;5091625;28;20810;-72
2023/11/08 09:24:38;;;;;;;0.50;0.50;;;5.20;99.90;;;;;;5091570;28;20284;-72
2023/11/08 09:27:06;;;;;;;0.80;0.80;;;5.20;99.90;;;;;;5090119;28;20196;-72
2023/11/08 09:29:32;;;;;;;0.40;0.40;;;5.30;99.90;;;;;;5091338;28;20199;-73
2023/11/08 09:31:58;;;;;;;0.43;0.43;;;5.40;99.90;;;;;;5091660;28;20184;-73
2023/11/08 09:34:24;;;;;;;0.50;0.50;;;5.30;99.90;;;;;;5091495;28;20203;-72
2023/11/08 09:36:50;;;;;;;0.60;0.60;;;5.30;99.90;;;;;;5073472;28;20192;-73
2023/11/08 09:39:16;;;;;;;0.70;0.70;;;5.40;99.90;;;;;;5091748;28;20274;-72
2023/11/08 09:41:43;;;;;;;0.50;0.50;;;5.50;99.90;;;;;;5091634;28;20619;-72
2023/11/08 09:44:11;;;;;;;0.50;0.50;;;5.50;99.90;;;;;;5091739;28;20180;-76
2023/11/08 09:46:40;;;;;;;0.70;0.70;;;5.40;99.90;;;;;;5091422;28;20188;-76
2023/11/08 09:49:06;;;;;;;0.50;0.50;;;5.50;99.90;;;;;;5073043;28;20544;-74
2023/11/08 09:51:31;;;;;;;0.60;0.60;;;5.50;99.90;;;;;;5090950;28;20295;-72
2023/11/08 09:54:03;;;;;;;0.80;0.80;;;5.60;99.90;;;;;;5090803;28;20204;-72
2023/11/08 09:56:31;;;;;;;0.50;0.50;;;5.60;99.90;;;;;;5090615;28;20231;-73
2023/11/08 09:58:58;;;;;;;0.50;0.50;;;5.70;99.90;;;;;;5072436;28;20200;-72
2023/11/08 10:01:27;;;;;;;0.60;0.60;;;5.70;99.90;;;;;;5090531;28;20710;-73
2023/11/08 10:03:54;;;;;;;0.57;0.57;;;5.70;99.90;;;;;;5090635;28;20185;-73
2023/11/08 10:06:20;;;;;;;0.70;0.70;;;5.80;99.90;;;;;;5090332;28;20228;-72
2023/11/08 10:08:47;;;;;;;0.65;0.65;;;5.80;99.90;;;;;;5089178;28;20724;-74
2023/11/08 10:11:14;;;;;;;1.95;1.13;;;5.90;99.90;;;;;;5090507;28;20204;-72
2023/11/08 10:13:49;;;;;;;0.50;0.50;;;5.90;99.90;;;;;;5090378;28;20721;-73
2023/11/08 10:16:18;;;;;;;0.60;0.60;;;5.90;99.90;;;;;;5090578;28;20305;-72
2023/11/08 10:18:57;;;;;;;0.60;0.60;;;5.90;99.90;;;;;;5090620;28;20648;-73
2023/11/08 10:21:26;;;;;;;0.90;0.90;;;5.90;99.90;;;;;;5090144;28;20328;-72
2023/11/08 10:23:55;;;;;;;0.80;0.80;;;5.90;99.90;;;;;;5090366;28;20215;-68
2023/11/08 10:26:27;;;;;;;0.68;0.68;;;5.90;99.90;;;;;;5090092;28;20769;-70
2023/11/08 10:29:05;;;;;;;0.60;0.60;;;5.90;99.90;;;;;;5090047;28;20203;-70
2023/11/08 10:31:38;;;;;;;0.50;0.50;;;5.90;99.90;;;;;;5089879;28;20199;-68
2023/11/08 10:34:06;;;;;;;0.50;0.50;;;5.90;99.90;;;;;;5072090;28;20216;-68
2023/11/08 10:36:33;;;;;;;0.40;0.40;;;6.00;99.90;;;;;;5071716;28;20659;-68
2023/11/08 10:39:00;;;;;;;0.50;0.50;;;5.90;99.90;;;;;;5090087;28;20690;-69
2023/11/08 10:41:27;;;;;;;0.60;0.60;;;6.00;99.90;;;;;;5089832;28;20255;-70
2023/11/08 10:44:22;;;;;;;0.50;0.50;;;6.00;99.90;;;;;;5089977;28;20215;-68
2023/11/08 10:46:59;;;;;;;0.60;0.60;;;6.00;99.90;;;;;;5090010;28;20678;-70
2023/11/08 10:49:25;;;;;;;0.68;0.68;;;6.00;99.90;;;;;;5089641;28;21029;-70
2023/11/08 10:51:53;;;;;;;0.60;0.60;;;6.10;99.90;;;;;;5074198;28;20732;-69
2023/11/08 10:54:19;;;;;;;0.57;0.57;;;6.10;99.90;;;;;;5069277;28;20249;-72
2023/11/08 10:56:47;;;;;;;0.60;0.60;;;6.20;99.90;;;;;;5048130;28;20264;-70
2023/11/08 10:59:16;;;;;;;0.52;0.52;;;6.30;99.90;;;;;;5062990;28;20251;-69
2023/11/08 11:01:42;;;;;;;0.50;0.50;;;6.30;99.90;;;;;;5069261;28;20220;-69
2023/11/08 11:04:11;;;;;;;0.90;0.90;;;6.30;99.90;;;;;;5069635;28;20221;-69
2023/11/08 11:06:40;;;;;;;0.60;0.60;;;6.20;99.90;;;;;;5069168;28;20200;-71
2023/11/08 11:09:10;;;;;;;0.50;0.50;;;6.30;99.90;;;;;;5069501;28;20554;-70
2023/11/08 11:12:11;;;;;;;0.50;0.50;;;6.30;99.90;;;;;;5069186;28;20208;-68
2023/11/08 11:14:44;;;;;;;0.60;0.60;;;6.30;99.90;;;;;;5026298;28;20740;-68
2023/11/08 11:17:15;;;;;;;0.75;0.75;;;6.30;99.90;;;;;;5069186;28;20192;-68
2023/11/08 11:19:45;;;;;;;0.60;0.60;;;6.30;99.90;;;;;;5068975;28;20249;-70
2023/11/08 11:22:18;;;;;;;0.70;0.70;;;6.20;99.90;;;;;;5069251;28;20266;-68
2023/11/08 11:24:45;;;;;;;0.60;0.60;;;6.30;99.90;;;;;;5068706;28;20205;-68
2023/11/08 11:27:33;;;;;;;0.60;0.60;;;6.30;99.90;;;;;;5069034;28;20193;-69
2023/11/08 11:30:14;;;;;;;0.50;0.50;;;6.30;99.90;;;;;;5068868;28;20286;-69
2023/11/08 11:32:47;;;;;;;0.70;0.70;;;6.30;99.90;;;;;;5068957;28;20197;-72
2023/11/08 11:35:16;;;;;;;0.57;0.57;;;6.30;99.90;;;;;;5069165;28;20188;-73
2023/11/08 11:37:43;;;;;;;0.57;0.57;;;6.20;99.90;;;;;;5068980;28;20205;-73
2023/11/08 11:40:09;;;;;;;0.93;0.85;;;6.20;99.90;;;;;;5068903;28;20246;-74
2023/11/08 11:42:37;;;;;;;0.88;0.88;;;6.20;99.90;;;;;;5068697;28;20193;-74
2023/11/08 11:45:05;;;;;;;0.55;0.55;;;6.20;99.90;;;;;;5068806;28;20220;-71
2023/11/08 11:47:31;;;;;;;0.60;0.60;;;6.10;99.90;;;;;;5058066;28;20201;-71
2023/11/08 11:50:00;;;;;;;0.60;0.60;;;6.10;99.90;;;;;;5048835;28;20687;-69
2023/11/08 11:52:28;;;;;;;0.50;0.50;;;6.10;99.90;;;;;;5048650;28;20298;-71
2023/11/08 11:54:55;;;;;;;1.17;1.17;;;6.10;99.90;;;;;;5052524;28;20203;-69
2023/11/08 11:57:22;;;;;;;0.68;0.68;;;6.10;99.90;;;;;;5047119;28;20328;-70
2023/11/08 11:59:56;;;;;;;0.50;0.50;;;6.10;99.90;;;;;;5048758;28;20202;-70
2023/11/08 12:02:25;;;;;;;0.45;0.45;;;6.10;99.90;;;;;;5048893;28;20719;-70
2023/11/08 12:04:51;;;;;;;0.50;0.50;;;6.10;99.90;;;;;;5048876;28;20205;-71
2023/11/08 12:07:17;;;;;;;0.60;0.60;;;6.10;99.90;;;;;;5067478;28;20209;-70
2023/11/08 12:09:46;;;;;;;0.40;0.40;;;6.00;99.90;;;;;;5068473;28;20196;-69
2023/11/08 12:12:13;;;;;;;0.55;0.55;;;6.00;99.90;;;;;;5068718;28;20192;-71
2023/11/08 12:14:49;;;;;;;0.70;0.70;;;5.90;99.90;;;;;;5068352;28;20204;-69
2023/11/08 12:17:15;;;;;;;0.60;0.60;;;5.90;99.90;;;;;;5068470;28;20676;-69
2023/11/08 12:19:41;;;;;;;0.60;0.60;;;6.00;99.90;;;;;;5068499;28;20220;-70
2023/11/08 12:22:07;;;;;;;0.50;0.50;;;6.00;99.90;;;;;;5068969;28;20722;-69
2023/11/08 12:24:33;;;;;;;0.70;0.70;;;6.10;99.90;;;;;;5068570;28;20201;-70
2023/11/08 12:27:00;;;;;;;0.60;0.60;;;6.10;99.90;;;;;;5068680;28;20193;-69
2023/11/08 12:29:26;;;;;;;0.45;0.45;;;6.10;99.90;;;;;;5068312;28;20204;-71
2023/11/08 12:31:52;;;;;;;0.50;0.50;;;6.00;99.90;;;;;;5068386;28;20193;-69
2023/11/08 12:34:19;;;;;;;0.50;0.50;;;6.00;99.90;;;;;;5068174;28;20242;-70
2023/11/08 12:36:45;;;;;;;0.63;0.63;;;6.00;99.90;;;;;;5069512;28;20200;-71
2023/11/08 12:39:20;;;;;;;0.60;0.60;;;6.00;99.90;;;;;;5072264;28;20711;-69
2023/11/08 12:41:50;;;;;;;0.63;0.63;;;6.10;99.90;;;;;;5072359;28;20219;-69
2023/11/08 12:44:19;;;;;;;0.57;0.57;;;6.10;99.90;;;;;;5057513;28;20229;-70
2023/11/08 12:46:59;;;;;;;0.60;0.60;;;6.20;99.90;;;;;;5052231;28;20254;-71
2023/11/08 12:49:26;;;;;;;0.60;0.60;;;6.20;99.90;;;;;;5051749;28;20197;-69
2023/11/08 12:51:52;;;;;;;0.68;0.68;;;6.20;99.90;;;;;;5066624;28;20192;-69
2023/11/08 12:54:19;;;;;;;0.50;0.50;;;6.20;99.90;;;;;;5072098;28;20200;-70
2023/11/08 12:56:47;;;;;;;0.60;0.60;;;6.10;99.90;;;;;;5086155;28;20232;-70